Time;durP1;ratioP1;P1;durP2;ratioP2;P2;SDS_P1;SDS_P2;PMS_P1;PMS_P2;Temp;Humidity;BMP_temperature;BMP_pressure;BME280_temperature;BME280_humidity;BME280_pressure;Samples;Min_cycle;Max_cycle;Signal;HPM_P1;HPM_P2
2022/12/08 00:01:30;;;;;;;;;;;;;;;18.69;46.83;100850.65;102051;1332;60522;-84
2022/12/08 00:03:56;;;;;;;;;;;;;;;18.69;46.72;100850.12;101965;1334;60620;-84
2022/12/08 00:09:27;;;;;;;;;;;;;;;18.69;46.85;100855.99;102045;1333;72575;-84
2022/12/08 00:11:54;;;;;;;;;;;;;;;18.69;46.68;100853.11;101967;1329;73541;-85
2022/12/08 00:14:21;;;;;;;;;;;;;;;18.70;46.79;100851.29;102001;1332;61002;-85
2022/12/08 00:16:46;;;;;;;;;;;;;;;18.70;46.80;100853.07;102113;1329;61366;-84
2022/12/08 00:19:12;;;;;;;;;;;;;;;18.70;46.69;100860.20;101993;1335;60685;-84
2022/12/08 00:21:37;;;;;;;;;;;;;;;18.70;46.69;100857.70;101970;1329;60588;-85
2022/12/08 00:24:03;;;;;;;;;;;;;;;18.71;46.76;100856.04;102076;1329;60509;-85
2022/12/08 00:26:28;;;;;;;;;;;;;;;18.71;46.70;100859.27;102495;1326;60473;-83
2022/12/08 00:28:53;;;;;;;;;;;;;;;18.71;46.84;100863.90;102121;1331;60614;-83
2022/12/08 00:31:19;;;;;;;;;;;;;;;18.71;46.83;100865.82;102060;1330;60591;-84
2022/12/08 00:33:44;;;;;;;;;;;;;;;18.72;46.85;100865.45;102048;1329;60635;-84
2022/12/08 00:36:11;;;;;;;;;;;;;;;18.72;46.77;100867.73;102051;1332;60528;-84
2022/12/08 00:38:36;;;;;;;;;;;;;;;18.73;46.79;100870.56;101994;1329;60272;-84
2022/12/08 00:41:02;;;;;;;;;;;;;;;18.73;46.80;100873.06;101992;1329;60552;-84
2022/12/08 00:43:27;;;;;;;;;;;;;;;18.73;46.83;100875.35;101994;1329;72577;-85
2022/12/08 00:45:53;;;;;;;;;;;;;;;18.73;46.80;100871.77;102056;1329;60524;-84
2022/12/08 00:48:18;;;;;;;;;;;;;;;18.73;46.64;100868.94;102061;1330;60535;-84
2022/12/08 00:50:46;;;;;;;;;;;;;;;18.73;46.68;100865.58;101956;1331;60460;-84
2022/12/08 00:53:11;;;;;;;;;;;;;;;18.73;46.74;100860.55;102055;1328;60366;-84
2022/12/08 00:55:37;;;;;;;;;;;;;;;18.73;46.72;100866.10;102031;1327;60579;-84
2022/12/08 00:58:02;;;;;;;;;;;;;;;18.73;46.77;100871.42;101978;1330;60508;-84
2022/12/08 01:00:27;;;;;;;;;;;;;;;18.73;46.61;100869.47;102001;1326;60607;-84
2022/12/08 01:02:53;;;;;;;;;;;;;;;18.73;46.65;100869.98;102055;1333;60969;-84
2022/12/08 01:05:18;;;;;;;;;;;;;;;18.74;46.67;100871.77;101964;1326;60523;-84
2022/12/08 01:07:44;;;;;;;;;;;;;;;18.73;46.71;100874.27;102108;1332;60582;-84
2022/12/08 01:10:09;;;;;;;;;;;;;;;18.74;46.72;100869.61;101974;1335;73244;-84
2022/12/08 01:12:35;;;;;;;;;;;;;;;18.74;46.75;100867.13;101962;1332;60542;-84
2022/12/08 01:15:00;;;;;;;;;;;;;;;18.74;46.75;100863.73;101970;1329;61858;-84
2022/12/08 01:17:25;;;;;;;;;;;;;;;18.74;46.63;100860.52;101905;1329;61375;-84
2022/12/08 01:19:51;;;;;;;;;;;;;;;18.74;46.64;100859.43;101969;1334;62147;-84
2022/12/08 01:22:16;;;;;;;;;;;;;;;18.74;46.65;100859.94;102018;1329;61305;-84
2022/12/08 01:24:42;;;;;;;;;;;;;;;18.75;46.63;100859.75;102024;1328;61438;-84
2022/12/08 01:27:07;;;;;;;;;;;;;;;18.74;46.63;100866.70;101957;1334;61300;-84
2022/12/08 01:29:33;;;;;;;;;;;;;;;18.75;46.64;100867.95;101910;1329;61337;-84
2022/12/08 01:31:58;;;;;;;;;;;;;;;18.75;46.68;100868.80;102069;1326;61424;-84
2022/12/08 01:34:24;;;;;;;;;;;;;;;18.75;46.63;100867.02;102000;1333;61432;-83
2022/12/08 01:36:49;;;;;;;;;;;;;;;18.76;46.55;100862.71;101915;1337;61396;-83
2022/12/08 01:39:16;;;;;;;;;;;;;;;18.75;46.71;100855.96;101899;1337;61418;-85
2022/12/08 01:41:42;;;;;;;;;;;;;;;18.76;46.61;100850.77;101945;1337;61133;-84
2022/12/08 01:44:09;;;;;;;;;;;;;;;18.76;46.47;100854.69;101941;1337;61305;-84
2022/12/08 01:46:38;;;;;;;;;;;;;;;18.76;46.67;100859.31;101956;1333;59444;-84
2022/12/08 01:49:08;;;;;;;;;;;;;;;18.76;46.58;100864.64;101947;1331;61275;-84
2022/12/08 01:51:36;;;;;;;;;;;;;;;18.76;46.44;100871.94;101974;1329;71469;-84
2022/12/08 01:54:01;;;;;;;;;;;;;;;18.77;46.58;100888.86;101945;1331;74640;-83
2022/12/08 01:56:56;;;;;;;;;;;;;;;18.78;46.49;100904.35;101946;1330;61880;-84
2022/12/08 01:59:21;;;;;;;;;;;;;;;18.78;46.53;100896.32;101697;1337;61429;-84
2022/12/08 02:01:47;;;;;;;;;;;;;;;18.78;46.54;100892.39;101657;1338;61299;-84
2022/12/08 02:04:12;;;;;;;;;;;;;;;18.78;46.60;100899.36;101586;1342;62016;-84
2022/12/08 02:06:38;;;;;;;;;;;;;;;18.78;46.67;100896.66;101775;1338;61362;-84
2022/12/08 02:09:04;;;;;;;;;;;;;;;18.78;46.60;100890.21;101731;1334;61175;-84
2022/12/08 02:11:30;;;;;;;;;;;;;;;18.79;46.45;100883.06;101765;1340;61311;-84
2022/12/08 02:13:56;;;;;;;;;;;;;;;18.79;46.63;100882.17;101711;1334;72560;-84
2022/12/08 02:16:30;;;;;;;;;;;;;;;18.79;46.70;100880.91;101737;1341;61395;-84
2022/12/08 02:19:07;;;;;;;;;;;;;;;18.79;46.58;100882.16;101721;1335;61197;-84
2022/12/08 02:21:40;;;;;;;;;;;;;;;18.79;46.47;100876.64;101710;1340;61178;-84
2022/12/08 02:24:12;;;;;;;;;;;;;;;18.79;46.49;100869.65;101763;1341;72689;-84
2022/12/08 02:26:56;;;;;;;;;;;;;;;18.79;46.68;100865.73;101750;1335;74400;-84
2022/12/08 02:29:22;;;;;;;;;;;;;;;18.80;46.52;100868.91;101742;1340;61271;-84
2022/12/08 02:31:56;;;;;;;;;;;;;;;18.80;46.51;100864.83;101779;1340;61513;-85
2022/12/08 02:34:22;;;;;;;;;;;;;;;18.80;46.58;100864.95;101695;1341;72545;-84
2022/12/08 02:36:47;;;;;;;;;;;;;;;18.80;46.52;100869.07;101964;1333;62276;-84
2022/12/08 02:39:31;;;;;;;;;;;;;;;18.80;46.45;100876.90;102077;1326;61373;-83
2022/12/08 02:42:04;;;;;;;;;;;;;;;18.81;46.52;100882.77;102100;1332;61433;-84
2022/12/08 02:44:35;;;;;;;;;;;;;;;18.81;46.57;100882.39;101973;1333;73563;-84
2022/12/08 02:47:06;;;;;;;;;;;;;;;18.81;46.58;100887.90;102067;1326;73925;-85
2022/12/08 02:49:31;;;;;;;;;;;;;;;18.82;46.55;100892.85;102051;1335;61333;-84
2022/12/08 02:52:12;;;;;;;;;;;;;;;18.82;46.54;100886.27;101993;1335;61356;-83
2022/12/08 02:54:38;;;;;;;;;;;;;;;18.82;46.62;100892.14;102102;1332;72546;-84
2022/12/08 02:57:16;;;;;;;;;;;;;;;18.82;46.50;100900.89;102053;1319;61297;-84
2022/12/08 02:59:41;;;;;;;;;;;;;;;18.82;46.52;100906.20;102102;1333;61350;-84
2022/12/08 03:02:25;;;;;;;;;;;;;;;18.82;46.38;100906.73;102039;1333;61320;-84
2022/12/08 03:05:01;;;;;;;;;;;;;;;18.82;46.52;100905.85;102065;1332;72575;-84
2022/12/08 03:07:32;;;;;;;;;;;;;;;18.82;46.58;100903.52;102033;1332;75534;-84
2022/12/08 03:10:07;;;;;;;;;;;;;;;18.83;46.43;100906.34;102096;1327;61169;-84
2022/12/08 03:12:35;;;;;;;;;;;;;;;18.83;46.51;100903.50;101987;1330;61066;-85
2022/12/08 03:15:02;;;;;;;;;;;;;;;18.82;46.42;100912.79;102069;1326;73733;-84
2022/12/08 03:17:28;;;;;;;;;;;;;;;18.83;46.38;100926.48;101985;1336;75958;-85
2022/12/08 03:19:54;;;;;;;;;;;;;;;18.83;46.47;100930.77;102076;1334;61192;-84
2022/12/08 03:22:20;;;;;;;;;;;;;;;18.83;46.50;100920.40;102083;1335;61404;-84
2022/12/08 03:24:46;;;;;;;;;;;;;;;18.84;46.56;100918.59;102046;1335;61406;-84
2022/12/08 03:27:13;;;;;;;;;;;;;;;18.84;46.47;100919.65;102029;1328;61420;-84
2022/12/08 03:29:38;;;;;;;;;;;;;;;18.84;46.48;100926.80;101991;1320;61362;-85
2022/12/08 03:32:13;;;;;;;;;;;;;;;18.84;46.48;100929.30;102055;1333;61306;-84
2022/12/08 03:34:39;;;;;;;;;;;;;;;18.84;46.40;100934.45;102095;1333;72499;-85
2022/12/08 03:37:04;;;;;;;;;;;;;;;18.84;46.50;100937.86;102031;1329;61401;-84
2022/12/08 03:39:29;;;;;;;;;;;;;;;18.84;46.48;100938.36;101931;1335;61244;-84
2022/12/08 03:41:55;;;;;;;;;;;;;;;18.85;46.49;100934.05;101968;1334;61347;-84
2022/12/08 03:44:20;;;;;;;;;;;;;;;18.84;46.49;100928.92;102075;1329;61355;-84
2022/12/08 03:46:46;;;;;;;;;;;;;;;18.84;46.46;100928.55;101949;1327;61327;-83
2022/12/08 03:49:11;;;;;;;;;;;;;;;18.85;46.55;100922.99;102072;1333;61276;-83
2022/12/08 03:51:36;;;;;;;;;;;;;;;18.85;46.53;100919.80;101978;1330;61791;-83
2022/12/08 03:54:02;;;;;;;;;;;;;;;18.84;46.52;100918.73;102046;1332;59300;-84
2022/12/08 03:56:29;;;;;;;;;;;;;;;18.85;46.38;100919.08;102000;1334;61399;-84
2022/12/08 03:58:54;;;;;;;;;;;;;;;18.84;46.62;100912.48;101972;1331;72628;-84
2022/12/08 04:01:20;;;;;;;;;;;;;;;18.85;46.41;100909.61;102069;1326;61375;-84
2022/12/08 04:03:45;;;;;;;;;;;;;;;18.85;46.54;100912.98;101968;1334;61305;-85
2022/12/08 04:06:11;;;;;;;;;;;;;;;18.86;46.51;100921.13;101958;1333;61271;-84
2022/12/08 04:08:36;;;;;;;;;;;;;;;18.85;46.47;100922.59;101995;1329;61393;-83
2022/12/08 04:11:02;;;;;;;;;;;;;;;18.86;46.54;100932.90;102033;1329;61331;-84
2022/12/08 04:13:27;;;;;;;;;;;;;;;18.86;46.68;100931.83;102071;1333;61298;-84
2022/12/08 04:15:53;;;;;;;;;;;;;;;18.86;46.50;100929.48;101973;1331;61337;-84
2022/12/08 04:18:18;;;;;;;;;;;;;;;18.86;46.48;100925.58;101979;1330;61393;-84
2022/12/08 04:20:44;;;;;;;;;;;;;;;18.87;46.46;100930.20;102097;1332;61306;-84
2022/12/08 04:23:09;;;;;;;;;;;;;;;18.86;46.55;100936.09;102037;1329;61279;-85
2022/12/08 04:25:35;;;;;;;;;;;;;;;18.87;46.50;100929.83;101970;1329;61378;-84
2022/12/08 04:28:00;;;;;;;;;;;;;;;18.87;46.42;100925.17;102051;1329;61417;-84
2022/12/08 04:30:25;;;;;;;;;;;;;;;18.87;46.38;100927.13;101965;1329;61439;-84
2022/12/08 04:32:51;;;;;;;;;;;;;;;18.87;46.47;100924.28;102067;1327;61360;-84
2022/12/08 04:35:16;;;;;;;;;;;;;;;18.88;46.62;100918.71;102040;1329;62100;-84
2022/12/08 04:37:43;;;;;;;;;;;;;;;18.88;46.49;100924.23;102022;1326;61347;-83
2022/12/08 04:40:35;;;;;;;;;;;;;;;18.88;46.42;100932.44;101988;1335;62095;-83
2022/12/08 04:43:00;;;;;;;;;;;;;;;18.88;46.43;100934.93;101839;1334;61299;-84
2022/12/08 04:45:25;;;;;;;;;;;;;;;18.88;46.42;100934.40;101796;1338;61363;-84
2022/12/08 04:47:51;;;;;;;;;;;;;;;18.89;46.41;100938.65;101782;1335;61584;-85
2022/12/08 04:50:16;;;;;;;;;;;;;;;18.89;46.40;100937.95;101827;1338;61326;-85
2022/12/08 04:52:42;;;;;;;;;;;;;;;18.89;46.38;100937.77;101819;1337;61393;-84
2022/12/08 04:55:07;;;;;;;;;;;;;;;18.89;46.47;100928.83;101809;1340;61327;-84
2022/12/08 04:57:33;;;;;;;;;;;;;;;18.89;46.46;100924.17;101811;1333;61302;-84
2022/12/08 04:59:58;;;;;;;;;;;;;;;18.90;46.39;100916.63;101803;1337;61419;-84
2022/12/08 05:02:23;;;;;;;;;;;;;;;18.89;46.49;100914.02;101802;1340;61325;-84
2022/12/08 05:04:49;;;;;;;;;;;;;;;18.88;46.41;100911.04;101834;1332;61345;-84
2022/12/08 05:07:14;;;;;;;;;;;;;;;18.88;46.31;100909.26;101810;1339;61355;-84
2022/12/08 05:09:40;;;;;;;;;;;;;;;18.88;46.30;100916.23;101787;1336;61622;-84
2022/12/08 05:12:05;;;;;;;;;;;;;;;18.88;46.28;100924.43;101815;1340;61318;-83
2022/12/08 05:14:30;;;;;;;;;;;;;;;18.88;46.44;100927.27;101839;1333;62651;-84
2022/12/08 05:16:56;;;;;;;;;;;;;;;18.88;46.44;100927.08;101791;1336;61367;-84
2022/12/08 05:19:21;;;;;;;;;;;;;;;18.88;46.22;100926.36;101863;1334;61369;-84
2022/12/08 05:21:47;;;;;;;;;;;;;;;18.89;46.35;100930.80;101995;1313;61273;-83
2022/12/08 05:24:12;;;;;;;;;;;;;;;18.90;46.36;100931.61;101935;1322;61317;-83
2022/12/08 05:26:37;;;;;;;;;;;;;;;18.92;46.46;100932.03;101951;1320;61457;-84
2022/12/08 05:29:03;;;;;;;;;;;;;;;18.93;46.19;100936.63;101927;1320;61321;-84
2022/12/08 05:31:28;;;;;;;;;;;;;;;18.94;46.25;100927.83;101964;1319;61415;-85
2022/12/08 05:33:54;;;;;;;;;;;;;;;18.93;46.13;100934.30;102014;1313;61295;-84
2022/12/08 05:36:19;;;;;;;;;;;;;;;18.94;46.09;100939.94;101940;1333;61363;-84
2022/12/08 05:38:45;;;;;;;;;;;;;;;18.96;45.97;100941.83;101946;1313;60004;-84
2022/12/08 05:41:15;;;;;;;;;;;;;;;18.96;46.01;100938.38;102022;1327;61306;-85
2022/12/08 05:43:40;;;;;;;;;;;;;;;18.97;45.72;100933.17;101933;1321;61173;-84
2022/12/08 05:46:06;;;;;;;;;;;;;;;18.97;45.53;100937.83;101949;1316;61275;-84
2022/12/08 05:48:31;;;;;;;;;;;;;;;18.96;45.79;100943.57;101993;1326;61332;-84
2022/12/08 05:50:56;;;;;;;;;;;;;;;18.97;45.72;100943.01;101942;1319;61374;-83
2022/12/08 05:53:22;;;;;;;;;;;;;;;18.97;45.48;100947.83;101972;1313;61401;-84
2022/12/08 05:55:47;;;;;;;;;;;;;;;18.96;45.62;100958.37;101835;1321;61343;-84
2022/12/08 05:58:13;;;;;;;;;;;;;;;18.95;45.45;100962.70;102058;1313;60083;-84
2022/12/08 06:00:39;;;;;;;;;;;;;;;18.92;45.49;100961.59;101855;1318;61321;-84
2022/12/08 06:03:05;;;;;;;;;;;;;;;18.90;45.46;100962.13;102556;1321;61332;-83
2022/12/08 06:05:33;;;;;;;;;;;;;;;18.88;45.64;100968.64;102099;1321;61267;-84
2022/12/08 06:07:59;;;;;;;;;;;;;;;18.88;45.58;100970.77;101951;1317;61213;-84
2022/12/08 06:10:25;;;;;;;;;;;;;;;18.90;45.50;100975.31;101962;1314;61255;-85
2022/12/08 06:12:53;;;;;;;;;;;;;;;18.92;45.46;100977.00;102058;1318;60559;-83
2022/12/08 06:15:18;;;;;;;;;;;;;;;18.93;45.64;100975.48;102061;1313;61295;-83
2022/12/08 06:17:43;;;;;;;;;;;;;;;18.94;45.31;100978.81;102024;1319;61233;-84
2022/12/08 06:20:09;;;;;;;;;;;;;;;18.96;45.43;100986.54;102003;1313;79665;-84
2022/12/08 06:22:34;;;;;;;;;;;;;;;19.00;45.41;100990.80;102012;1320;61341;-84
2022/12/08 06:25:23;;;;;;;;;;;;;;;19.04;45.48;100994.30;102008;1321;59762;-84
2022/12/08 06:27:48;;;;;;;;;;;;;;;19.07;45.37;100993.53;101695;1324;61559;-84
2022/12/08 06:30:14;;;;;;;;;;;;;;;19.11;45.26;100997.10;101627;1319;59488;-84
2022/12/08 06:32:39;;;;;;;;;;;;;;;19.15;45.14;100995.45;101596;1327;61293;-83
2022/12/08 06:35:05;;;;;;;;;;;;;;;19.18;45.25;100995.06;101675;1324;59449;-84
2022/12/08 06:37:31;;;;;;;;;;;;;;;19.21;45.37;100990.93;101677;1323;59784;-83
2022/12/08 06:39:57;;;;;;;;;;;;;;;19.24;45.16;100999.47;101658;1323;61303;-83
2022/12/08 06:45:07;;;;;;;;;;;;;;;19.32;45.10;101023.14;101666;1325;74636;-84
2022/12/08 06:47:33;;;;;;;;;;;;;;;19.34;45.27;101029.80;101651;1326;61195;-83
2022/12/08 06:49:58;;;;;;;;;;;;;;;19.36;45.08;101029.27;101650;1323;61371;-85
2022/12/08 06:52:23;;;;;;;;;;;;;;;19.39;45.16;101027.02;101730;1323;60246;-84
2022/12/08 06:54:49;;;;;;;;;;;;;;;19.38;45.20;101024.87;101670;1325;61382;-84
2022/12/08 06:57:17;;;;;;;;;;;;;;;19.36;45.17;101025.23;101738;1316;74946;-84
2022/12/08 06:59:42;;;;;;;;;;;;;;;19.31;45.02;101035.69;101563;1324;61382;-84
2022/12/08 07:02:08;;;;;;;;;;;;;;;19.27;45.29;101036.83;101634;1319;59636;-84
2022/12/08 07:04:33;;;;;;;;;;;;;;;19.21;45.02;101025.55;101844;1327;60703;-84
2022/12/08 07:06:59;;;;;;;;;;;;;;;19.19;45.22;101021.92;102022;1321;61174;-84
2022/12/08 07:09:24;;;;;;;;;;;;;;;19.19;45.06;101015.67;101955;1313;61420;-84
2022/12/08 07:11:49;;;;;;;;;;;;;;;19.22;45.21;101005.69;102031;1320;63000;-84
2022/12/08 07:14:15;;;;;;;;;;;;;;;19.26;45.25;101009.60;101989;1321;61331;-84
2022/12/08 07:16:40;;;;;;;;;;;;;;;19.30;45.39;101021.14;101916;1320;61306;-85
2022/12/08 07:19:06;;;;;;;;;;;;;;;19.34;45.16;101036.74;102056;1317;60273;-85
2022/12/08 07:21:31;;;;;;;;;;;;;;;19.37;45.28;101042.27;101957;1317;61324;-84
2022/12/08 07:23:57;;;;;;;;;;;;;;;19.41;45.22;101050.61;101879;1319;61300;-85
2022/12/08 07:26:22;;;;;;;;;;;;;;;19.45;45.33;101047.19;101865;1320;61277;-85
2022/12/08 07:28:48;;;;;;;;;;;;;;;19.47;45.18;101041.34;101854;1316;61402;-85
2022/12/08 07:31:17;;;;;;;;;;;;;;;19.49;45.21;101047.27;101822;1313;61408;-85
2022/12/08 07:33:43;;;;;;;;;;;;;;;19.52;45.15;101054.63;102355;1321;59382;-85
2022/12/08 07:36:08;;;;;;;;;;;;;;;19.54;45.36;101053.04;101952;1321;61305;-85
2022/12/08 07:38:34;;;;;;;;;;;;;;;19.57;45.21;101058.02;101855;1321;60383;-85
2022/12/08 07:40:59;;;;;;;;;;;;;;;19.58;45.22;101059.73;101787;1320;61318;-85
2022/12/08 07:43:25;;;;;;;;;;;;;;;19.60;45.32;101059.30;101915;1313;60184;-85
2022/12/08 07:45:50;;;;;;;;;;;;;;;19.62;45.38;101064.20;101991;1320;59268;-85
2022/12/08 07:48:15;;;;;;;;;;;;;;;19.64;45.34;101068.35;101948;1327;59476;-85
2022/12/08 07:50:42;;;;;;;;;;;;;;;19.64;45.32;101066.73;101979;1317;61389;-85
2022/12/08 07:53:07;;;;;;;;;;;;;;;19.65;45.35;101071.14;102046;1313;60458;-83
2022/12/08 07:55:33;;;;;;;;;;;;;;;19.63;45.18;101068.40;101949;1319;61317;-84
2022/12/08 07:57:58;;;;;;;;;;;;;;;19.59;45.42;101064.68;102018;1321;60136;-87
2022/12/08 08:00:24;;;;;;;;;;;;;;;19.60;45.39;101063.95;101931;1320;61295;-84
2022/12/08 08:02:49;;;;;;;;;;;;;;;19.58;45.50;101063.33;101930;1320;61405;-85
2022/12/08 08:05:15;;;;;;;;;;;;;;;19.54;45.34;101058.92;101834;1320;61303;-84
2022/12/08 08:07:42;;;;;;;;;;;;;;;19.53;45.45;101051.52;101957;1320;62642;-83
2022/12/08 08:10:08;;;;;;;;;;;;;;;19.51;45.39;101050.55;101879;1313;61430;-84
2022/12/08 08:12:34;;;;;;;;;;;;;;;19.48;45.40;101050.54;101886;1317;59526;-84
2022/12/08 08:15:00;;;;;;;;;;;;;;;19.45;45.33;101061.43;102095;1319;59317;-84
2022/12/08 08:17:25;;;;;;;;;;;;;;;19.44;45.38;101062.21;101285;1318;700807;-82
2022/12/08 08:19:51;;;;;;;;;;;;;;;19.44;45.37;101062.39;101495;1320;61455;-84
2022/12/08 08:22:16;;;;;;;;;;;;;;;19.47;45.57;101062.39;101516;1319;63279;-83
2022/12/08 08:24:42;;;;;;;;;;;;;;;19.49;45.43;101062.80;101434;1314;61382;-82
2022/12/08 08:27:07;;;;;;;;;;;;;;;19.52;45.60;101055.65;101995;1313;61290;-84
2022/12/08 08:29:32;;;;;;;;;;;;;;;19.55;45.55;101047.81;101991;1321;60123;-82
2022/12/08 08:31:58;;;;;;;;;;;;;;;19.59;45.70;101049.89;101806;1313;61350;-84
2022/12/08 08:34:25;;;;;;;;;;;;;;;19.63;45.69;101049.30;101905;1321;61494;-83
2022/12/08 08:36:50;;;;;;;;;;;;;;;19.66;45.69;101053.58;101848;1313;61329;-83
2022/12/08 08:39:15;;;;;;;;;;;;;;;19.67;45.71;101054.22;102041;1321;61279;-83
2022/12/08 08:41:41;;;;;;;;;;;;;;;19.69;45.86;101053.75;101906;1313;61312;-83
2022/12/08 08:44:07;;;;;;;;;;;;;;;19.70;45.87;101050.48;101991;1311;59739;-82
2022/12/08 08:46:33;;;;;;;;;;;;;;;19.70;45.86;101040.77;101980;1326;61144;-83
2022/12/08 08:48:58;;;;;;;;;;;;;;;19.72;45.76;101036.58;101849;1320;59735;-83
2022/12/08 08:51:23;;;;;;;;;;;;;;;19.73;45.82;101033.85;102029;1320;61372;-83
2022/12/08 08:53:49;;;;;;;;;;;;;;;19.73;45.91;101039.38;101974;1321;61738;-83
2022/12/08 08:56:16;;;;;;;;;;;;;;;19.73;45.97;101037.41;102081;1321;61246;-83
2022/12/08 08:58:42;;;;;;;;;;;;;;;19.73;45.90;101039.58;101960;1319;61196;-83
2022/12/08 09:01:07;;;;;;;;;;;;;;;19.73;46.08;101038.30;101909;1336;61416;-82
2022/12/08 09:03:33;;;;;;;;;;;;;;;19.74;45.91;101034.13;101739;1320;61443;-84
2022/12/08 09:05:59;;;;;;;;;;;;;;;19.72;45.99;101031.27;101856;1313;58968;-84
2022/12/08 09:08:24;;;;;;;;;;;;;;;19.60;45.89;101028.92;101916;1320;61373;-83
2022/12/08 09:10:50;;;;;;;;;;;;;;;19.50;45.92;101020.77;102148;1320;60151;-83
2022/12/08 09:13:15;;;;;;;;;;;;;;;19.44;46.02;101025.98;102084;1313;61388;-83
2022/12/08 09:15:40;;;;;;;;;;;;;;;19.41;46.14;101030.80;102057;1313;61445;-83
2022/12/08 09:18:06;;;;;;;;;;;;;;;19.41;46.18;101034.15;102058;1321;61516;-83
2022/12/08 09:20:32;;;;;;;;;;;;;;;19.43;46.18;101041.00;102074;1313;61273;-83
2022/12/08 09:22:57;;;;;;;;;;;;;;;19.45;46.31;101039.48;102271;1316;61284;-83
2022/12/08 09:25:23;;;;;;;;;;;;;;;19.47;46.40;101035.62;102079;1321;61302;-84
2022/12/08 09:27:48;;;;;;;;;;;;;;;19.49;46.18;101029.10;101918;1320;61276;-83
2022/12/08 09:30:13;;;;;;;;;;;;;;;19.51;46.49;101029.15;101964;1313;61241;-83
2022/12/08 09:32:39;;;;;;;;;;;;;;;19.53;46.50;101019.76;101929;1327;61407;-83
2022/12/08 09:35:05;;;;;;;;;;;;;;;19.55;46.53;101014.45;101849;1313;61327;-82
2022/12/08 09:37:31;;;;;;;;;;;;;;;19.57;46.55;101014.47;101852;1323;72257;-82
2022/12/08 09:39:57;;;;;;;;;;;;;;;19.58;46.57;101007.77;101942;1313;61346;-82
2022/12/08 09:42:38;;;;;;;;;;;;;;;19.60;46.45;101006.60;102024;1321;61266;-82
2022/12/08 09:45:11;;;;;;;;;;;;;;;19.62;46.50;101005.81;101985;1327;60308;-82
2022/12/08 09:47:38;;;;;;;;;;;;;;;19.62;46.63;101000.41;101954;1321;72437;-83
2022/12/08 09:50:16;;;;;;;;;;;;;;;19.63;46.66;101004.34;101899;1312;75668;-82
2022/12/08 09:52:46;;;;;;;;;;;;;;;19.63;46.56;100996.65;102046;1321;60806;-82
2022/12/08 09:55:20;;;;;;;;;;;;;;;19.63;46.73;100992.14;102914;1328;61358;-82
2022/12/08 09:57:47;;;;;;;;;;;;;;;19.64;46.66;100987.98;102869;1330;72467;-84
2022/12/08 10:00:13;;;;;;;;;;;;;;;19.65;46.87;100995.25;102293;1321;75209;-83
2022/12/08 10:02:39;;;;;;;;;;;;;;;19.62;46.77;100990.95;102067;1321;59467;-83
2022/12/08 10:05:05;;;;;;;;;;;;;;;19.53;46.45;100988.16;102110;1320;61759;-84
2022/12/08 10:07:30;;;;;;;;;;;;;;;19.34;46.41;100979.10;102053;1321;61305;-84
2022/12/08 10:10:14;;;;;;;;;;;;;;;19.09;45.99;100971.54;102116;1321;61309;-84
2022/12/08 10:12:42;;;;;;;;;;;;;;;18.86;46.43;100976.23;102171;1316;61164;-83
2022/12/08 10:15:28;;;;;;;;;;;;;;;18.85;46.73;100981.48;102845;1332;61413;-83
2022/12/08 10:17:53;;;;;;;;;;;;;;;18.88;46.75;100980.59;102897;1333;72534;-83
2022/12/08 10:20:23;;;;;;;;;;;;;;;18.91;46.90;100980.58;102928;1327;59749;-83
2022/12/08 10:22:50;;;;;;;;;;;;;;;18.92;46.77;100975.53;102488;1323;61288;-83
2022/12/08 10:25:18;;;;;;;;;;;;;;;18.93;46.92;100975.66;102801;1329;60322;-83
2022/12/08 10:27:45;;;;;;;;;;;;;;;18.91;46.83;100977.17;102041;1320;59800;-83
2022/12/08 10:30:16;;;;;;;;;;;;;;;18.94;46.88;100973.80;101434;1321;61273;-84
2022/12/08 10:32:43;;;;;;;;;;;;;;;18.99;46.77;100968.71;101542;1320;61264;-83
2022/12/08 10:35:10;;;;;;;;;;;;;;;19.06;46.73;100963.50;101456;1320;63496;-84
2022/12/08 10:37:36;;;;;;;;;;;;;;;19.09;46.80;100960.23;101982;1324;73653;-83
2022/12/08 10:40:12;;;;;;;;;;;;;;;19.14;46.68;100958.02;101376;1320;63369;-83
2022/12/08 10:42:39;;;;;;;;;;;;;;;19.19;46.68;100959.49;102421;1314;61274;-83
2022/12/08 10:45:14;;;;;;;;;;;;;;;19.24;46.67;100958.13;101427;1320;61153;-83
2022/12/08 10:47:40;;;;;;;;;;;;;;;19.29;46.64;100964.64;102886;1321;72835;-83
2022/12/08 10:50:16;;;;;;;;;;;;;;;19.32;46.68;100969.08;101521;1316;61255;-85
2022/12/08 10:52:42;;;;;;;;;;;;;;;19.35;46.54;100963.18;101619;1318;61823;-85
2022/12/08 10:55:17;;;;;;;;;;;;;;;19.35;46.61;100960.84;101379;1319;61312;-84
2022/12/08 10:57:43;;;;;;;;;;;;;;;19.36;46.38;100962.21;101458;1320;71098;-84
2022/12/08 11:00:12;;;;;;;;;;;;;;;19.36;46.38;100962.94;101910;1314;61325;-84
2022/12/08 11:02:48;;;;;;;;;;;;;;;19.31;46.29;100957.35;101905;1319;61839;-83
2022/12/08 11:05:14;;;;;;;;;;;;;;;19.16;46.11;100958.41;101784;1313;61786;-84
2022/12/08 11:07:44;;;;;;;;;;;;;;;18.88;45.80;100960.61;102180;1320;59866;-84
2022/12/08 11:10:14;;;;;;;;;;;;;;;18.74;45.89;100966.73;102231;1329;75851;-84
2022/12/08 11:12:39;;;;;;;;;;;;;;;18.69;46.03;100967.77;102673;1319;60899;-85
2022/12/08 11:15:06;;;;;;;;;;;;;;;18.65;46.12;100961.45;102740;1327;59159;-85
2022/12/08 11:17:38;;;;;;;;;;;;;;;18.66;46.07;100958.00;102792;1327;59761;-83
2022/12/08 11:20:05;;;;;;;;;;;;;;;18.69;46.13;100956.89;102686;1323;75525;-82
2022/12/08 11:22:31;;;;;;;;;;;;;;;18.74;45.99;100954.44;102800;1327;60933;-82
2022/12/08 11:25:02;;;;;;;;;;;;;;;18.76;46.07;100950.92;102778;1327;59388;-82
2022/12/08 11:27:28;;;;;;;;;;;;;;;18.78;46.11;100941.59;102663;1330;72636;-82
2022/12/08 11:29:53;;;;;;;;;;;;;;;18.82;45.94;100935.46;102759;1335;58966;-82
2022/12/08 11:32:19;;;;;;;;;;;;;;;18.86;46.18;100927.40;102847;1326;59786;-84
2022/12/08 11:34:45;;;;;;;;;;;;;;;18.92;46.10;100922.39;102239;1321;61353;-83
2022/12/08 11:37:18;;;;;;;;;;;;;;;18.95;46.11;100921.17;101969;1327;61305;-83
2022/12/08 11:39:45;;;;;;;;;;;;;;;18.95;45.95;100918.45;101960;1320;74727;-83
2022/12/08 11:42:12;;;;;;;;;;;;;;;18.95;45.79;100922.27;102027;1321;61234;-83
2022/12/08 11:44:45;;;;;;;;;;;;;;;18.92;45.73;100922.95;102051;1320;61303;-83
2022/12/08 11:47:23;;;;;;;;;;;;;;;18.89;45.50;100924.20;101988;1321;72684;-83
2022/12/08 11:49:48;;;;;;;;;;;;;;;18.79;45.54;100931.34;102064;1321;75606;-84
2022/12/08 11:52:17;;;;;;;;;;;;;;;18.78;45.63;100937.15;101907;1320;61403;-83
2022/12/08 11:55:02;;;;;;;;;;;;;;;18.76;45.55;100941.36;101952;1320;61013;-84
2022/12/08 11:57:28;;;;;;;;;;;;;;;18.70;45.38;100938.10;101787;1313;72545;-85
2022/12/08 11:59:53;;;;;;;;;;;;;;;18.68;45.39;100934.51;102008;1321;61290;-85
2022/12/08 12:02:19;;;;;;;;;;;;;;;18.65;45.28;100933.59;102118;1319;61318;-84
2022/12/08 12:04:48;;;;;;;;;;;;;;;18.61;45.34;100930.83;102175;1321;60081;-84
2022/12/08 12:07:32;;;;;;;;;;;;;;;18.58;45.46;100932.01;101912;1317;61328;-84
2022/12/08 12:10:01;;;;;;;;;;;;;;;18.57;45.56;100921.02;102043;1317;75592;-83
2022/12/08 12:12:37;;;;;;;;;;;;;;;18.57;45.54;100916.42;102031;1321;61202;-84
2022/12/08 12:15:03;;;;;;;;;;;;;;;18.58;45.45;100915.29;102096;1320;61417;-84
2022/12/08 12:17:28;;;;;;;;;;;;;;;18.57;45.43;100905.88;102034;1313;61385;-84
2022/12/08 12:19:53;;;;;;;;;;;;;;;18.57;45.54;100909.81;102049;1321;59823;-83
2022/12/08 12:22:19;;;;;;;;;;;;;;;18.58;45.50;100919.21;101943;1333;61332;-84
2022/12/08 12:24:46;;;;;;;;;;;;;;;18.59;45.30;100915.95;101926;1321;59560;-84
2022/12/08 12:27:11;;;;;;;;;;;;;;;18.61;45.36;100921.19;102058;1321;61251;-84
2022/12/08 12:29:37;;;;;;;;;;;;;;;18.63;45.38;100922.87;101930;1313;61239;-84
2022/12/08 12:32:03;;;;;;;;;;;;;;;18.65;45.34;100928.61;101863;1320;61334;-83